sensor_id;sensor_type;location;lat;lon;timestamp;P1;durP1;ratioP1;P2;durP2;ratioP2
17796;SDS011;55596;53.554;9.916;2023-03-14T00:00:31;3.83;;;2.40;;
17796;SDS011;55596;53.554;9.916;2023-03-14T00:02:58;4.83;;;2.53;;
17796;SDS011;55596;53.554;9.916;2023-03-14T00:05:26;6.30;;;2.50;;
17796;SDS011;55596;53.554;9.916;2023-03-14T00:07:54;5.17;;;2.47;;
17796;SDS011;55596;53.554;9.916;2023-03-14T00:10:21;6.63;;;2.67;;
17796;SDS011;55596;53.554;9.916;2023-03-14T00:12:48;8.53;;;2.80;;
17796;SDS011;55596;53.554;9.916;2023-03-14T00:15:15;8.03;;;2.77;;
17796;SDS011;55596;53.554;9.916;2023-03-14T00:17:43;8.63;;;3.13;;
17796;SDS011;55596;53.554;9.916;2023-03-14T00:20:11;7.30;;;2.80;;
17796;SDS011;55596;53.554;9.916;2023-03-14T00:22:39;8.33;;;2.80;;
17796;SDS011;55596;53.554;9.916;2023-03-14T00:25:07;7.70;;;2.93;;
17796;SDS011;55596;53.554;9.916;2023-03-14T00:27:35;6.63;;;2.40;;
17796;SDS011;55596;53.554;9.916;2023-03-14T00:30:03;7.97;;;2.87;;
17796;SDS011;55596;53.554;9.916;2023-03-14T00:32:30;4.80;;;2.70;;
17796;SDS011;55596;53.554;9.916;2023-03-14T00:34:57;9.30;;;3.20;;
17796;SDS011;55596;53.554;9.916;2023-03-14T00:37:25;7.07;;;2.40;;
17796;SDS011;55596;53.554;9.916;2023-03-14T00:39:54;10.80;;;2.70;;
17796;SDS011;55596;53.554;9.916;2023-03-14T00:42:23;9.57;;;2.70;;
17796;SDS011;55596;53.554;9.916;2023-03-14T00:44:50;10.50;;;2.70;;
17796;SDS011;55596;53.554;9.916;2023-03-14T00:47:18;10.60;;;3.17;;
17796;SDS011;55596;53.554;9.916;2023-03-14T00:49:45;9.07;;;2.23;;
17796;SDS011;55596;53.554;9.916;2023-03-14T00:52:12;6.93;;;2.80;;
17796;SDS011;55596;53.554;9.916;2023-03-14T00:54:40;11.03;;;2.50;;
17796;SDS011;55596;53.554;9.916;2023-03-14T00:57:08;8.80;;;2.83;;
17796;SDS011;55596;53.554;9.916;2023-03-14T00:59:35;8.60;;;2.73;;
17796;SDS011;55596;53.554;9.916;2023-03-14T01:02:02;6.43;;;2.67;;
17796;SDS011;55596;53.554;9.916;2023-03-14T01:04:30;11.50;;;2.80;;
17796;SDS011;55596;53.554;9.916;2023-03-14T01:06:57;8.83;;;2.60;;
17796;SDS011;55596;53.554;9.916;2023-03-14T01:09:24;8.17;;;2.53;;
17796;SDS011;55596;53.554;9.916;2023-03-14T01:11:51;5.13;;;2.50;;
17796;SDS011;55596;53.554;9.916;2023-03-14T01:14:19;10.13;;;2.50;;
17796;SDS011;55596;53.554;9.916;2023-03-14T01:16:47;7.87;;;2.30;;
17796;SDS011;55596;53.554;9.916;2023-03-14T01:19:14;7.57;;;2.47;;
17796;SDS011;55596;53.554;9.916;2023-03-14T01:21:41;8.10;;;2.40;;
17796;SDS011;55596;53.554;9.916;2023-03-14T01:24:10;7.93;;;2.60;;
17796;SDS011;55596;53.554;9.916;2023-03-14T01:26:38;8.57;;;2.83;;
17796;SDS011;55596;53.554;9.916;2023-03-14T01:29:05;9.90;;;2.43;;
17796;SDS011;55596;53.554;9.916;2023-03-14T01:31:33;8.20;;;2.47;;
17796;SDS011;55596;53.554;9.916;2023-03-14T01:34:01;6.87;;;2.40;;
17796;SDS011;55596;53.554;9.916;2023-03-14T01:36:28;10.37;;;2.77;;
17796;SDS011;55596;53.554;9.916;2023-03-14T01:38:55;10.93;;;2.70;;
17796;SDS011;55596;53.554;9.916;2023-03-14T01:41:23;10.07;;;2.70;;
17796;SDS011;55596;53.554;9.916;2023-03-14T01:43:51;7.47;;;2.57;;
17796;SDS011;55596;53.554;9.916;2023-03-14T01:46:23;7.77;;;2.43;;
17796;SDS011;55596;53.554;9.916;2023-03-14T01:48:57;7.40;;;2.57;;
17796;SDS011;55596;53.554;9.916;2023-03-14T01:51:27;9.60;;;2.70;;
17796;SDS011;55596;53.554;9.916;2023-03-14T01:53:58;8.97;;;2.90;;
17796;SDS011;55596;53.554;9.916;2023-03-14T01:56:26;6.93;;;2.80;;
17796;SDS011;55596;53.554;9.916;2023-03-14T01:58:53;11.37;;;2.90;;
17796;SDS011;55596;53.554;9.916;2023-03-14T02:01:21;7.87;;;2.97;;
17796;SDS011;55596;53.554;9.916;2023-03-14T02:03:52;8.73;;;3.13;;
17796;SDS011;55596;53.554;9.916;2023-03-14T02:06:23;8.20;;;3.00;;
17796;SDS011;55596;53.554;9.916;2023-03-14T02:08:51;8.90;;;2.83;;
17796;SDS011;55596;53.554;9.916;2023-03-14T02:11:18;10.30;;;2.73;;
17796;SDS011;55596;53.554;9.916;2023-03-14T02:13:46;8.40;;;3.17;;
17796;SDS011;55596;53.554;9.916;2023-03-14T02:16:13;10.03;;;2.80;;
17796;SDS011;55596;53.554;9.916;2023-03-14T02:18:40;11.50;;;3.50;;
17796;SDS011;55596;53.554;9.916;2023-03-14T02:21:09;12.70;;;3.10;;
17796;SDS011;55596;53.554;9.916;2023-03-14T02:23:45;7.90;;;2.73;;
17796;SDS011;55596;53.554;9.916;2023-03-14T02:26:15;10.93;;;2.93;;
17796;SDS011;55596;53.554;9.916;2023-03-14T02:28:45;12.53;;;2.87;;
17796;SDS011;55596;53.554;9.916;2023-03-14T02:31:13;11.33;;;2.57;;
17796;SDS011;55596;53.554;9.916;2023-03-14T02:33:40;9.67;;;3.53;;
17796;SDS011;55596;53.554;9.916;2023-03-14T02:36:09;9.83;;;3.37;;
17796;SDS011;55596;53.554;9.916;2023-03-14T02:38:37;8.03;;;2.70;;
17796;SDS011;55596;53.554;9.916;2023-03-14T02:41:07;7.20;;;2.87;;
17796;SDS011;55596;53.554;9.916;2023-03-14T02:43:34;8.83;;;3.30;;
17796;SDS011;55596;53.554;9.916;2023-03-14T02:46:03;9.57;;;2.73;;
17796;SDS011;55596;53.554;9.916;2023-03-14T02:48:33;7.93;;;2.97;;
17796;SDS011;55596;53.554;9.916;2023-03-14T02:51:01;7.57;;;2.87;;
17796;SDS011;55596;53.554;9.916;2023-03-14T02:53:29;7.00;;;2.90;;
17796;SDS011;55596;53.554;9.916;2023-03-14T02:55:57;10.47;;;2.90;;
17796;SDS011;55596;53.554;9.916;2023-03-14T02:58:25;8.90;;;3.10;;
17796;SDS011;55596;53.554;9.916;2023-03-14T03:00:52;7.70;;;3.20;;
17796;SDS011;55596;53.554;9.916;2023-03-14T03:03:21;6.73;;;3.17;;
17796;SDS011;55596;53.554;9.916;2023-03-14T03:05:48;8.00;;;2.97;;
17796;SDS011;55596;53.554;9.916;2023-03-14T03:08:16;8.83;;;3.00;;
17796;SDS011;55596;53.554;9.916;2023-03-14T03:10:43;10.30;;;2.67;;
17796;SDS011;55596;53.554;9.916;2023-03-14T03:13:10;7.47;;;3.27;;
17796;SDS011;55596;53.554;9.916;2023-03-14T03:15:37;9.53;;;3.20;;
17796;SDS011;55596;53.554;9.916;2023-03-14T03:18:05;8.20;;;2.87;;
17796;SDS011;55596;53.554;9.916;2023-03-14T03:20:34;8.60;;;2.87;;
17796;SDS011;55596;53.554;9.916;2023-03-14T03:23:01;8.10;;;2.70;;
17796;SDS011;55596;53.554;9.916;2023-03-14T03:25:28;10.73;;;3.13;;
17796;SDS011;55596;53.554;9.916;2023-03-14T03:27:55;4.97;;;2.60;;
17796;SDS011;55596;53.554;9.916;2023-03-14T03:30:23;9.37;;;2.60;;
17796;SDS011;55596;53.554;9.916;2023-03-14T03:32:50;7.10;;;2.90;;
17796;SDS011;55596;53.554;9.916;2023-03-14T03:35:20;6.13;;;2.47;;
17796;SDS011;55596;53.554;9.916;2023-03-14T03:40:30;7.73;;;2.50;;
17796;SDS011;55596;53.554;9.916;2023-03-14T03:42:58;6.37;;;2.80;;
17796;SDS011;55596;53.554;9.916;2023-03-14T03:45:25;11.27;;;2.80;;
17796;SDS011;55596;53.554;9.916;2023-03-14T03:47:52;8.17;;;2.57;;
17796;SDS011;55596;53.554;9.916;2023-03-14T03:50:20;6.93;;;2.47;;
17796;SDS011;55596;53.554;9.916;2023-03-14T03:52:47;6.60;;;2.33;;
17796;SDS011;55596;53.554;9.916;2023-03-14T03:55:14;7.27;;;2.70;;
17796;SDS011;55596;53.554;9.916;2023-03-14T03:57:42;8.40;;;2.67;;
17796;SDS011;55596;53.554;9.916;2023-03-14T04:00:10;10.13;;;2.80;;
17796;SDS011;55596;53.554;9.916;2023-03-14T04:02:38;6.10;;;2.33;;
17796;SDS011;55596;53.554;9.916;2023-03-14T04:05:05;8.63;;;2.90;;
17796;SDS011;55596;53.554;9.916;2023-03-14T04:07:32;11.17;;;3.50;;
17796;SDS011;55596;53.554;9.916;2023-03-14T04:09:59;12.63;;;2.60;;
17796;SDS011;55596;53.554;9.916;2023-03-14T04:12:26;5.50;;;2.50;;
17796;SDS011;55596;53.554;9.916;2023-03-14T04:14:55;14.20;;;3.30;;
17796;SDS011;55596;53.554;9.916;2023-03-14T04:17:22;9.80;;;2.90;;
17796;SDS011;55596;53.554;9.916;2023-03-14T04:19:49;6.37;;;2.83;;
17796;SDS011;55596;53.554;9.916;2023-03-14T04:22:18;7.87;;;2.90;;
17796;SDS011;55596;53.554;9.916;2023-03-14T04:24:45;7.80;;;2.73;;
17796;SDS011;55596;53.554;9.916;2023-03-14T04:27:13;8.07;;;2.70;;
17796;SDS011;55596;53.554;9.916;2023-03-14T04:29:54;8.23;;;2.90;;
17796;SDS011;55596;53.554;9.916;2023-03-14T04:32:21;9.63;;;2.97;;
17796;SDS011;55596;53.554;9.916;2023-03-14T04:34:48;6.43;;;3.00;;
17796;SDS011;55596;53.554;9.916;2023-03-14T04:37:16;7.23;;;2.63;;
17796;SDS011;55596;53.554;9.916;2023-03-14T04:39:43;9.47;;;3.23;;
17796;SDS011;55596;53.554;9.916;2023-03-14T04:42:10;9.40;;;3.00;;
17796;SDS011;55596;53.554;9.916;2023-03-14T04:44:37;6.57;;;2.63;;
17796;SDS011;55596;53.554;9.916;2023-03-14T04:47:05;9.70;;;3.27;;
17796;SDS011;55596;53.554;9.916;2023-03-14T04:49:33;8.00;;;3.40;;
17796;SDS011;55596;53.554;9.916;2023-03-14T04:52:00;6.77;;;3.20;;
17796;SDS011;55596;53.554;9.916;2023-03-14T04:54:27;8.20;;;2.60;;
17796;SDS011;55596;53.554;9.916;2023-03-14T04:56:54;5.60;;;2.70;;
17796;SDS011;55596;53.554;9.916;2023-03-14T04:59:21;5.80;;;2.70;;
17796;SDS011;55596;53.554;9.916;2023-03-14T05:01:48;10.77;;;2.67;;
17796;SDS011;55596;53.554;9.916;2023-03-14T05:04:17;8.67;;;2.60;;
17796;SDS011;55596;53.554;9.916;2023-03-14T05:06:44;8.10;;;2.47;;
17796;SDS011;55596;53.554;9.916;2023-03-14T05:09:11;7.77;;;1.83;;
17796;SDS011;55596;53.554;9.916;2023-03-14T05:11:40;8.43;;;2.80;;
17796;SDS011;55596;53.554;9.916;2023-03-14T05:14:07;8.13;;;2.00;;
17796;SDS011;55596;53.554;9.916;2023-03-14T05:16:34;10.07;;;2.17;;
17796;SDS011;55596;53.554;9.916;2023-03-14T05:19:01;10.83;;;2.77;;
17796;SDS011;55596;53.554;9.916;2023-03-14T05:21:30;9.87;;;3.70;;
17796;SDS011;55596;53.554;9.916;2023-03-14T05:23:57;5.10;;;3.10;;
17796;SDS011;55596;53.554;9.916;2023-03-14T05:26:24;9.23;;;4.00;;
17796;SDS011;55596;53.554;9.916;2023-03-14T05:28:51;7.33;;;3.90;;
17796;SDS011;55596;53.554;9.916;2023-03-14T05:31:18;9.47;;;4.10;;
17796;SDS011;55596;53.554;9.916;2023-03-14T05:33:45;10.87;;;4.10;;
17796;SDS011;55596;53.554;9.916;2023-03-14T05:36:13;10.30;;;4.30;;
17796;SDS011;55596;53.554;9.916;2023-03-14T05:38:42;8.37;;;4.60;;
17796;SDS011;55596;53.554;9.916;2023-03-14T05:41:10;9.73;;;5.10;;
17796;SDS011;55596;53.554;9.916;2023-03-14T05:43:37;11.67;;;5.40;;
17796;SDS011;55596;53.554;9.916;2023-03-14T05:46:04;13.83;;;5.70;;
17796;SDS011;55596;53.554;9.916;2023-03-14T05:48:31;8.57;;;6.37;;
17796;SDS011;55596;53.554;9.916;2023-03-14T05:50:59;13.97;;;7.63;;
17796;SDS011;55596;53.554;9.916;2023-03-14T05:53:26;13.50;;;7.67;;
17796;SDS011;55596;53.554;9.916;2023-03-14T05:55:55;13.63;;;7.90;;
17796;SDS011;55596;53.554;9.916;2023-03-14T05:58:22;17.67;;;8.53;;
17796;SDS011;55596;53.554;9.916;2023-03-14T06:00:50;20.03;;;8.97;;
17796;SDS011;55596;53.554;9.916;2023-03-14T06:03:17;17.10;;;9.17;;
17796;SDS011;55596;53.554;9.916;2023-03-14T06:05:44;22.23;;;9.27;;
17796;SDS011;55596;53.554;9.916;2023-03-14T06:08:11;14.77;;;8.87;;
17796;SDS011;55596;53.554;9.916;2023-03-14T06:10:39;18.20;;;9.10;;
17796;SDS011;55596;53.554;9.916;2023-03-14T06:13:07;17.67;;;9.53;;
17796;SDS011;55596;53.554;9.916;2023-03-14T06:15:34;17.73;;;10.00;;
17796;SDS011;55596;53.554;9.916;2023-03-14T06:18:02;16.00;;;8.73;;
17796;SDS011;55596;53.554;9.916;2023-03-14T06:20:29;15.07;;;8.77;;
17796;SDS011;55596;53.554;9.916;2023-03-14T06:22:58;15.97;;;7.83;;
17796;SDS011;55596;53.554;9.916;2023-03-14T06:25:25;14.50;;;7.60;;
17796;SDS011;55596;53.554;9.916;2023-03-14T06:27:52;13.70;;;7.80;;
17796;SDS011;55596;53.554;9.916;2023-03-14T06:30:21;14.30;;;7.33;;
17796;SDS011;55596;53.554;9.916;2023-03-14T06:32:48;15.97;;;6.80;;
17796;SDS011;55596;53.554;9.916;2023-03-14T06:35:15;13.97;;;7.47;;
17796;SDS011;55596;53.554;9.916;2023-03-14T06:37:43;15.60;;;7.37;;
17796;SDS011;55596;53.554;9.916;2023-03-14T06:40:10;12.67;;;7.00;;
17796;SDS011;55596;53.554;9.916;2023-03-14T06:42:41;17.90;;;7.47;;
17796;SDS011;55596;53.554;9.916;2023-03-14T06:45:09;13.80;;;6.03;;
17796;SDS011;55596;53.554;9.916;2023-03-14T06:47:37;14.67;;;6.03;;
17796;SDS011;55596;53.554;9.916;2023-03-14T06:50:05;9.93;;;5.30;;
17796;SDS011;55596;53.554;9.916;2023-03-14T06:52:32;11.00;;;5.00;;
17796;SDS011;55596;53.554;9.916;2023-03-14T06:55:00;9.97;;;4.67;;
17796;SDS011;55596;53.554;9.916;2023-03-14T06:57:27;9.50;;;4.60;;
17796;SDS011;55596;53.554;9.916;2023-03-14T06:59:54;8.93;;;4.23;;
17796;SDS011;55596;53.554;9.916;2023-03-14T07:02:21;14.00;;;4.23;;
17796;SDS011;55596;53.554;9.916;2023-03-14T07:04:50;11.27;;;3.67;;
17796;SDS011;55596;53.554;9.916;2023-03-14T07:07:17;12.43;;;3.40;;
17796;SDS011;55596;53.554;9.916;2023-03-14T07:09:45;13.03;;;3.23;;
17796;SDS011;55596;53.554;9.916;2023-03-14T07:12:12;7.53;;;2.80;;
17796;SDS011;55596;53.554;9.916;2023-03-14T07:14:39;7.30;;;2.30;;
17796;SDS011;55596;53.554;9.916;2023-03-14T07:17:07;6.97;;;2.40;;
17796;SDS011;55596;53.554;9.916;2023-03-14T07:19:34;7.13;;;2.07;;
17796;SDS011;55596;53.554;9.916;2023-03-14T07:22:04;8.33;;;2.50;;
17796;SDS011;55596;53.554;9.916;2023-03-14T07:24:31;8.70;;;2.00;;
17796;SDS011;55596;53.554;9.916;2023-03-14T07:26:58;10.90;;;2.30;;
17796;SDS011;55596;53.554;9.916;2023-03-14T07:29:26;8.37;;;2.13;;
17796;SDS011;55596;53.554;9.916;2023-03-14T07:31:53;6.93;;;2.30;;
17796;SDS011;55596;53.554;9.916;2023-03-14T07:34:20;8.27;;;2.77;;
17796;SDS011;55596;53.554;9.916;2023-03-14T07:36:47;9.60;;;2.93;;
17796;SDS011;55596;53.554;9.916;2023-03-14T07:39:15;7.00;;;2.70;;
17796;SDS011;55596;53.554;9.916;2023-03-14T07:41:43;7.23;;;2.70;;
17796;SDS011;55596;53.554;9.916;2023-03-14T07:44:10;6.17;;;2.57;;
17796;SDS011;55596;53.554;9.916;2023-03-14T07:46:37;8.53;;;2.70;;
17796;SDS011;55596;53.554;9.916;2023-03-14T07:49:04;6.10;;;2.27;;
17796;SDS011;55596;53.554;9.916;2023-03-14T07:51:32;6.80;;;2.00;;
17796;SDS011;55596;53.554;9.916;2023-03-14T07:53:59;6.40;;;1.73;;
17796;SDS011;55596;53.554;9.916;2023-03-14T07:56:28;5.87;;;1.60;;
17796;SDS011;55596;53.554;9.916;2023-03-14T07:58:56;8.07;;;1.97;;
17796;SDS011;55596;53.554;9.916;2023-03-14T08:01:23;7.30;;;1.80;;
17796;SDS011;55596;53.554;9.916;2023-03-14T08:03:51;4.97;;;1.43;;
17796;SDS011;55596;53.554;9.916;2023-03-14T08:06:18;4.97;;;1.73;;
17796;SDS011;55596;53.554;9.916;2023-03-14T08:08:46;3.47;;;1.37;;
17796;SDS011;55596;53.554;9.916;2023-03-14T08:11:13;4.77;;;1.37;;
17796;SDS011;55596;53.554;9.916;2023-03-14T08:13:42;5.87;;;1.47;;
17796;SDS011;55596;53.554;9.916;2023-03-14T08:16:14;3.63;;;1.07;;
17796;SDS011;55596;53.554;9.916;2023-03-14T08:18:42;4.53;;;1.60;;
17796;SDS011;55596;53.554;9.916;2023-03-14T08:21:09;5.80;;;1.73;;
17796;SDS011;55596;53.554;9.916;2023-03-14T08:23:36;6.17;;;1.73;;
17796;SDS011;55596;53.554;9.916;2023-03-14T08:26:04;6.63;;;1.83;;
17796;SDS011;55596;53.554;9.916;2023-03-14T08:28:31;4.73;;;1.50;;
17796;SDS011;55596;53.554;9.916;2023-03-14T08:31:00;3.43;;;1.30;;
17796;SDS011;55596;53.554;9.916;2023-03-14T08:33:28;5.60;;;1.80;;
17796;SDS011;55596;53.554;9.916;2023-03-14T08:35:56;7.90;;;1.63;;
17796;SDS011;55596;53.554;9.916;2023-03-14T08:38:23;4.40;;;1.50;;
17796;SDS011;55596;53.554;9.916;2023-03-14T08:40:54;6.23;;;2.00;;
17796;SDS011;55596;53.554;9.916;2023-03-14T08:43:22;4.23;;;1.70;;
17796;SDS011;55596;53.554;9.916;2023-03-14T08:45:49;7.33;;;2.37;;
17796;SDS011;55596;53.554;9.916;2023-03-14T08:48:18;8.13;;;2.30;;
17796;SDS011;55596;53.554;9.916;2023-03-14T08:50:45;5.97;;;2.07;;
17796;SDS011;55596;53.554;9.916;2023-03-14T08:53:13;12.00;;;2.50;;
17796;SDS011;55596;53.554;9.916;2023-03-14T08:55:40;12.40;;;3.27;;
17796;SDS011;55596;53.554;9.916;2023-03-14T08:58:07;9.57;;;2.70;;
17796;SDS011;55596;53.554;9.916;2023-03-14T09:00:34;11.47;;;3.30;;
17796;SDS011;55596;53.554;9.916;2023-03-14T09:03:01;11.53;;;3.63;;
17796;SDS011;55596;53.554;9.916;2023-03-14T09:05:30;10.83;;;3.30;;
17796;SDS011;55596;53.554;9.916;2023-03-14T09:07:59;7.37;;;3.50;;
17796;SDS011;55596;53.554;9.916;2023-03-14T09:10:26;14.07;;;4.27;;
17796;SDS011;55596;53.554;9.916;2023-03-14T09:12:53;9.60;;;3.50;;
17796;SDS011;55596;53.554;9.916;2023-03-14T09:15:22;15.03;;;4.13;;
17796;SDS011;55596;53.554;9.916;2023-03-14T09:17:49;8.60;;;3.70;;
17796;SDS011;55596;53.554;9.916;2023-03-14T09:20:16;8.10;;;3.27;;
17796;SDS011;55596;53.554;9.916;2023-03-14T09:22:45;11.20;;;3.47;;
17796;SDS011;55596;53.554;9.916;2023-03-14T09:25:12;9.63;;;4.07;;
17796;SDS011;55596;53.554;9.916;2023-03-14T09:27:39;9.43;;;3.20;;
17796;SDS011;55596;53.554;9.916;2023-03-14T09:30:07;12.53;;;3.97;;
17796;SDS011;55596;53.554;9.916;2023-03-14T09:32:34;7.73;;;3.53;;
17796;SDS011;55596;53.554;9.916;2023-03-14T09:35:05;7.00;;;3.17;;
17796;SDS011;55596;53.554;9.916;2023-03-14T09:37:32;16.93;;;4.13;;
17796;SDS011;55596;53.554;9.916;2023-03-14T09:40:01;7.23;;;3.07;;
17796;SDS011;55596;53.554;9.916;2023-03-14T09:42:35;9.20;;;3.50;;
17796;SDS011;55596;53.554;9.916;2023-03-14T09:45:04;6.13;;;3.70;;
17796;SDS011;55596;53.554;9.916;2023-03-14T09:47:33;13.37;;;5.47;;
17796;SDS011;55596;53.554;9.916;2023-03-14T09:50:01;9.13;;;4.17;;
17796;SDS011;55596;53.554;9.916;2023-03-14T09:52:30;9.70;;;1.20;;
17796;SDS011;55596;53.554;9.916;2023-03-14T09:54:58;2.90;;;0.97;;
17796;SDS011;55596;53.554;9.916;2023-03-14T09:57:29;2.43;;;0.80;;
17796;SDS011;55596;53.554;9.916;2023-03-14T09:59:56;4.37;;;0.90;;
17796;SDS011;55596;53.554;9.916;2023-03-14T10:02:27;3.93;;;1.33;;
17796;SDS011;55596;53.554;9.916;2023-03-14T10:04:55;3.53;;;1.07;;
17796;SDS011;55596;53.554;9.916;2023-03-14T10:07:25;6.00;;;1.53;;
17796;SDS011;55596;53.554;9.916;2023-03-14T10:09:54;5.57;;;1.80;;
17796;SDS011;55596;53.554;9.916;2023-03-14T10:12:31;3.70;;;1.40;;
17796;SDS011;55596;53.554;9.916;2023-03-14T10:14:58;4.20;;;1.57;;
17796;SDS011;55596;53.554;9.916;2023-03-14T10:17:29;2.67;;;1.10;;
17796;SDS011;55596;53.554;9.916;2023-03-14T10:19:59;5.20;;;1.27;;
17796;SDS011;55596;53.554;9.916;2023-03-14T10:22:27;4.53;;;1.17;;
17796;SDS011;55596;53.554;9.916;2023-03-14T10:24:57;6.10;;;1.50;;
17796;SDS011;55596;53.554;9.916;2023-03-14T10:27:27;5.23;;;1.40;;
17796;SDS011;55596;53.554;9.916;2023-03-14T10:29:57;4.10;;;1.10;;
17796;SDS011;55596;53.554;9.916;2023-03-14T10:32:28;6.13;;;1.40;;
17796;SDS011;55596;53.554;9.916;2023-03-14T10:35:06;3.33;;;1.20;;
17796;SDS011;55596;53.554;9.916;2023-03-14T10:37:34;3.27;;;1.30;;
17796;SDS011;55596;53.554;9.916;2023-03-14T10:40:02;2.23;;;0.90;;
17796;SDS011;55596;53.554;9.916;2023-03-14T10:42:30;3.90;;;0.90;;
17796;SDS011;55596;53.554;9.916;2023-03-14T10:45:01;3.23;;;0.70;;
17796;SDS011;55596;53.554;9.916;2023-03-14T10:47:29;2.20;;;0.83;;
17796;SDS011;55596;53.554;9.916;2023-03-14T10:49:56;0.90;;;0.60;;
17796;SDS011;55596;53.554;9.916;2023-03-14T10:52:24;2.63;;;0.80;;
17796;SDS011;55596;53.554;9.916;2023-03-14T10:54:54;2.13;;;0.80;;
17796;SDS011;55596;53.554;9.916;2023-03-14T10:57:21;0.73;;;0.30;;
17796;SDS011;55596;53.554;9.916;2023-03-14T10:59:49;2.47;;;0.70;;
17796;SDS011;55596;53.554;9.916;2023-03-14T11:02:37;3.13;;;0.50;;
17796;SDS011;55596;53.554;9.916;2023-03-14T11:05:09;3.00;;;0.53;;
17796;SDS011;55596;53.554;9.916;2023-03-14T11:07:40;0.53;;;0.40;;
17796;SDS011;55596;53.554;9.916;2023-03-14T11:10:10;1.63;;;0.60;;
17796;SDS011;55596;53.554;9.916;2023-03-14T11:12:41;0.77;;;0.53;;
17796;SDS011;55596;53.554;9.916;2023-03-14T11:15:11;1.23;;;0.60;;
17796;SDS011;55596;53.554;9.916;2023-03-14T11:17:46;2.70;;;0.70;;
17796;SDS011;55596;53.554;9.916;2023-03-14T11:20:17;4.13;;;1.00;;
17796;SDS011;55596;53.554;9.916;2023-03-14T11:22:51;6.00;;;1.10;;
17796;SDS011;55596;53.554;9.916;2023-03-14T11:25:21;3.07;;;1.23;;
17796;SDS011;55596;53.554;9.916;2023-03-14T11:27:55;5.93;;;0.90;;
17796;SDS011;55596;53.554;9.916;2023-03-14T11:30:27;4.53;;;1.03;;
17796;SDS011;55596;53.554;9.916;2023-03-14T11:32:58;7.43;;;1.17;;
17796;SDS011;55596;53.554;9.916;2023-03-14T11:35:28;3.57;;;0.80;;
17796;SDS011;55596;53.554;9.916;2023-03-14T11:37:59;4.80;;;0.80;;
17796;SDS011;55596;53.554;9.916;2023-03-14T11:40:30;5.17;;;0.90;;
17796;SDS011;55596;53.554;9.916;2023-03-14T11:43:00;4.17;;;1.07;;
17796;SDS011;55596;53.554;9.916;2023-03-14T11:45:29;5.90;;;1.00;;
17796;SDS011;55596;53.554;9.916;2023-03-14T11:48:03;2.73;;;0.73;;
17796;SDS011;55596;53.554;9.916;2023-03-14T11:50:31;6.80;;;0.97;;
17796;SDS011;55596;53.554;9.916;2023-03-14T11:53:01;6.10;;;0.90;;
17796;SDS011;55596;53.554;9.916;2023-03-14T11:55:31;6.13;;;0.90;;
17796;SDS011;55596;53.554;9.916;2023-03-14T11:58:00;5.37;;;1.10;;
17796;SDS011;55596;53.554;9.916;2023-03-14T12:00:28;7.43;;;1.67;;
17796;SDS011;55596;53.554;9.916;2023-03-14T12:02:56;7.90;;;1.27;;
17796;SDS011;55596;53.554;9.916;2023-03-14T12:05:34;5.33;;;1.13;;
17796;SDS011;55596;53.554;9.916;2023-03-14T12:10:59;6.30;;;1.23;;
17796;SDS011;55596;53.554;9.916;2023-03-14T12:13:28;6.40;;;1.20;;
17796;SDS011;55596;53.554;9.916;2023-03-14T12:15:56;5.80;;;1.57;;
17796;SDS011;55596;53.554;9.916;2023-03-14T12:18:26;5.50;;;1.27;;
17796;SDS011;55596;53.554;9.916;2023-03-14T12:20:56;6.97;;;1.47;;
17796;SDS011;55596;53.554;9.916;2023-03-14T12:23:24;7.07;;;1.40;;
17796;SDS011;55596;53.554;9.916;2023-03-14T12:26:06;6.80;;;1.40;;
17796;SDS011;55596;53.554;9.916;2023-03-14T12:28:34;7.33;;;1.67;;
17796;SDS011;55596;53.554;9.916;2023-03-14T12:34:00;8.80;;;1.33;;
17796;SDS011;55596;53.554;9.916;2023-03-14T12:39:19;11.97;;;1.93;;
17796;SDS011;55596;53.554;9.916;2023-03-14T12:41:51;10.97;;;1.83;;
17796;SDS011;55596;53.554;9.916;2023-03-14T12:44:40;8.53;;;1.37;;
17796;SDS011;55596;53.554;9.916;2023-03-14T12:49:56;11.17;;;2.27;;
17796;SDS011;55596;53.554;9.916;2023-03-14T12:53:15;14.53;;;1.83;;
17796;SDS011;55596;53.554;9.916;2023-03-14T12:55:47;11.87;;;1.97;;
17796;SDS011;55596;53.554;9.916;2023-03-14T12:58:17;9.93;;;1.77;;
17796;SDS011;55596;53.554;9.916;2023-03-14T13:00:51;13.27;;;2.03;;
17796;SDS011;55596;53.554;9.916;2023-03-14T13:03:21;13.90;;;2.03;;
17796;SDS011;55596;53.554;9.916;2023-03-14T13:05:52;12.80;;;2.40;;
17796;SDS011;55596;53.554;9.916;2023-03-14T13:08:32;12.30;;;2.40;;
17796;SDS011;55596;53.554;9.916;2023-03-14T13:11:01;14.73;;;2.50;;
17796;SDS011;55596;53.554;9.916;2023-03-14T13:13:28;21.00;;;3.07;;
17796;SDS011;55596;53.554;9.916;2023-03-14T13:15:56;17.37;;;2.50;;
17796;SDS011;55596;53.554;9.916;2023-03-14T13:18:27;16.63;;;2.70;;
17796;SDS011;55596;53.554;9.916;2023-03-14T13:20:56;13.83;;;2.47;;
17796;SDS011;55596;53.554;9.916;2023-03-14T13:23:26;11.93;;;2.90;;
17796;SDS011;55596;53.554;9.916;2023-03-14T13:25:54;14.73;;;2.17;;
17796;SDS011;55596;53.554;9.916;2023-03-14T13:28:23;13.77;;;2.07;;
17796;SDS011;55596;53.554;9.916;2023-03-14T13:30:50;9.47;;;2.00;;
17796;SDS011;55596;53.554;9.916;2023-03-14T13:33:22;8.07;;;1.70;;
17796;SDS011;55596;53.554;9.916;2023-03-14T13:35:55;5.57;;;1.30;;
17796;SDS011;55596;53.554;9.916;2023-03-14T13:38:23;8.47;;;1.50;;
17796;SDS011;55596;53.554;9.916;2023-03-14T13:40:51;12.87;;;1.63;;
17796;SDS011;55596;53.554;9.916;2023-03-14T13:43:27;7.43;;;1.70;;
17796;SDS011;55596;53.554;9.916;2023-03-14T13:45:56;7.10;;;1.43;;
17796;SDS011;55596;53.554;9.916;2023-03-14T13:48:28;8.43;;;1.57;;
17796;SDS011;55596;53.554;9.916;2023-03-14T13:50:58;8.70;;;1.77;;
17796;SDS011;55596;53.554;9.916;2023-03-14T13:53:26;10.80;;;2.00;;
17796;SDS011;55596;53.554;9.916;2023-03-14T13:56:21;11.83;;;2.20;;
17796;SDS011;55596;53.554;9.916;2023-03-14T13:58:50;7.07;;;1.80;;
17796;SDS011;55596;53.554;9.916;2023-03-14T14:01:18;7.13;;;1.90;;
17796;SDS011;55596;53.554;9.916;2023-03-14T14:03:47;9.50;;;1.80;;
17796;SDS011;55596;53.554;9.916;2023-03-14T14:06:28;15.00;;;1.93;;
17796;SDS011;55596;53.554;9.916;2023-03-14T14:09:00;10.90;;;2.27;;
17796;SDS011;55596;53.554;9.916;2023-03-14T14:14:19;18.87;;;2.23;;
17796;SDS011;55596;53.554;9.916;2023-03-14T14:16:48;11.57;;;2.33;;
17796;SDS011;55596;53.554;9.916;2023-03-14T14:19:16;8.43;;;1.83;;
17796;SDS011;55596;53.554;9.916;2023-03-14T14:21:44;9.30;;;1.80;;
17796;SDS011;55596;53.554;9.916;2023-03-14T14:24:13;8.03;;;1.60;;
17796;SDS011;55596;53.554;9.916;2023-03-14T14:26:46;6.30;;;1.43;;
17796;SDS011;55596;53.554;9.916;2023-03-14T14:29:21;6.80;;;1.43;;
17796;SDS011;55596;53.554;9.916;2023-03-14T14:31:59;9.37;;;1.60;;
17796;SDS011;55596;53.554;9.916;2023-03-14T14:34:27;8.10;;;1.47;;
17796;SDS011;55596;53.554;9.916;2023-03-14T14:36:55;9.67;;;1.83;;
17796;SDS011;55596;53.554;9.916;2023-03-14T14:39:23;10.53;;;1.77;;
17796;SDS011;55596;53.554;9.916;2023-03-14T14:41:51;8.63;;;1.43;;
17796;SDS011;55596;53.554;9.916;2023-03-14T14:44:21;5.40;;;1.37;;
17796;SDS011;55596;53.554;9.916;2023-03-14T14:46:49;8.57;;;1.37;;
17796;SDS011;55596;53.554;9.916;2023-03-14T14:49:19;5.57;;;1.23;;
17796;SDS011;55596;53.554;9.916;2023-03-14T14:51:47;4.57;;;1.20;;
17796;SDS011;55596;53.554;9.916;2023-03-14T14:54:15;4.40;;;1.17;;
17796;SDS011;55596;53.554;9.916;2023-03-14T14:56:48;8.00;;;1.40;;
17796;SDS011;55596;53.554;9.916;2023-03-14T14:59:23;5.93;;;1.20;;
17796;SDS011;55596;53.554;9.916;2023-03-14T15:01:55;5.83;;;1.30;;
17796;SDS011;55596;53.554;9.916;2023-03-14T15:04:24;7.77;;;1.70;;
17796;SDS011;55596;53.554;9.916;2023-03-14T15:06:51;9.37;;;1.93;;
17796;SDS011;55596;53.554;9.916;2023-03-14T15:09:19;12.00;;;1.93;;